createdAt,value
2016-06-19T00:00:44.437Z,1012.52
2016-06-19T00:01:44.456Z,1012.56
2016-06-19T00:02:44.506Z,1012.54
2016-06-19T00:03:44.541Z,1012.53
2016-06-19T00:04:44.576Z,1012.54
2016-06-19T00:05:44.610Z,1012.56
2016-06-19T00:06:44.645Z,1012.55
2016-06-19T00:07:44.680Z,1012.54
2016-06-19T00:08:44.714Z,1012.56
2016-06-19T00:09:44.750Z,1012.57
2016-06-19T00:10:44.783Z,1012.61
2016-06-19T00:11:44.819Z,1012.6
2016-06-19T00:12:44.854Z,1012.61
2016-06-19T00:13:44.904Z,1012.62
2016-06-19T00:14:44.939Z,1012.66
2016-06-19T00:15:44.973Z,1012.65
2016-06-19T00:16:45.008Z,1012.61
2016-06-19T00:17:45.043Z,1012.6
2016-06-19T00:18:45.077Z,1012.62
2016-06-19T00:19:45.112Z,1012.65
2016-06-19T00:20:45.148Z,1012.64
2016-06-19T00:21:45.182Z,1012.63
2016-06-19T00:22:45.216Z,1012.6
2016-06-19T00:23:45.250Z,1012.6
2016-06-19T00:24:45.286Z,1012.66
2016-06-19T00:25:45.336Z,1012.6
2016-06-19T00:26:45.355Z,1012.65
2016-06-19T00:27:45.406Z,1012.63
2016-06-19T00:28:45.439Z,1012.61
2016-06-19T00:29:45.474Z,1012.68
2016-06-19T00:30:45.510Z,1012.64
2016-06-19T00:31:45.544Z,1012.65
2016-06-19T00:32:45.579Z,1012.62
2016-06-19T00:33:45.613Z,1012.65
2016-06-19T00:34:45.649Z,1012.64
2016-06-19T00:35:45.683Z,1012.64
2016-06-19T00:36:45.718Z,1012.68
2016-06-19T00:37:45.752Z,1012.67
2016-06-19T00:38:45.802Z,1012.66
2016-06-19T00:39:45.838Z,1012.64
2016-06-19T00:40:45.872Z,1012.68
2016-06-19T00:41:45.907Z,1012.66
2016-06-19T00:42:45.942Z,1012.65
2016-06-19T00:43:45.992Z,1012.63
2016-06-19T00:44:46.012Z,1012.65
2016-06-19T00:45:46.046Z,1012.66
2016-06-19T00:46:46.080Z,1012.67
2016-06-19T00:47:46.115Z,1012.68
2016-06-19T00:48:46.150Z,1012.7
2016-06-19T00:49:46.201Z,1012.7
2016-06-19T00:50:46.219Z,1012.71
2016-06-19T00:51:46.270Z,1012.74
2016-06-19T00:52:46.304Z,1012.68
2016-06-19T00:53:46.339Z,1012.72
2016-06-19T00:54:46.373Z,1012.72
2016-06-19T00:55:46.408Z,1012.7
2016-06-19T00:56:46.443Z,1012.71
2016-06-19T00:57:46.478Z,1012.76
2016-06-19T00:58:46.529Z,1012.72
2016-06-19T00:59:46.547Z,1012.73
2016-06-19T01:00:46.582Z,1012.73
2016-06-19T01:01:46.617Z,1012.77
2016-06-19T01:02:46.652Z,1012.77
2016-06-19T01:03:46.702Z,1012.76
2016-06-19T01:04:46.736Z,1012.81
2016-06-19T01:05:46.771Z,1012.8
2016-06-19T01:06:46.806Z,1012.82
2016-06-19T01:07:46.840Z,1012.84
2016-06-19T01:08:46.875Z,1012.87
2016-06-19T01:09:46.909Z,1012.88
2016-06-19T01:10:46.945Z,1012.9
2016-06-19T01:11:46.980Z,1012.88
2016-06-19T01:12:47.014Z,1012.86
2016-06-19T01:13:47.049Z,1012.88
2016-06-19T01:14:47.084Z,1012.86
2016-06-19T01:15:47.134Z,1012.91
2016-06-19T01:16:47.169Z,1012.89
2016-06-19T01:17:47.204Z,1012.92
2016-06-19T01:18:47.238Z,1012.93
2016-06-19T01:19:47.272Z,1012.92
2016-06-19T01:20:47.308Z,1012.93
2016-06-19T01:21:47.342Z,1012.92
2016-06-19T01:22:47.376Z,1012.94
2016-06-19T01:23:47.411Z,1012.92
2016-06-19T01:24:47.447Z,1012.96
2016-06-19T01:25:47.481Z,1012.95
2016-06-19T01:26:47.516Z,1012.96
2016-06-19T01:27:47.550Z,1012.99
2016-06-19T01:28:47.600Z,1012.99
2016-06-19T01:29:47.620Z,1013.03
2016-06-19T01:30:47.655Z,1013.05
2016-06-19T01:31:47.705Z,1013.02
2016-06-19T01:32:47.739Z,1013.04
2016-06-19T01:33:47.775Z,1013.1
2016-06-19T01:34:47.809Z,1013.07
2016-06-19T01:35:47.844Z,1013.14
2016-06-19T01:36:47.878Z,1013.16
2016-06-19T01:37:47.913Z,1013.09
2016-06-19T01:38:47.948Z,1013.19
2016-06-19T01:39:47.983Z,1013.2
2016-06-19T01:40:48.017Z,1013.17
2016-06-19T01:41:48.052Z,1013.18
2016-06-19T01:42:48.087Z,1013.18
2016-06-19T01:43:48.137Z,1013.17
2016-06-19T01:44:48.156Z,1013.19
2016-06-19T01:45:48.191Z,1013.22
2016-06-19T01:46:48.225Z,1013.27
2016-06-19T01:47:48.260Z,1013.27
2016-06-19T01:48:48.311Z,1013.31
2016-06-19T01:49:48.345Z,1013.26
2016-06-19T01:50:48.379Z,1013.3
2016-06-19T01:51:48.415Z,1013.27
2016-06-19T01:52:48.450Z,1013.3
2016-06-19T01:53:48.484Z,1013.36
2016-06-19T01:54:48.522Z,1013.33
2016-06-19T01:55:48.562Z,1013.36
2016-06-19T01:56:48.600Z,1013.34
2016-06-19T01:57:48.638Z,1013.32
2016-06-19T01:58:48.675Z,1013.36
2016-06-19T01:59:48.712Z,1013.39
2016-06-19T02:00:48.748Z,1013.36
2016-06-19T02:01:48.783Z,1013.37
2016-06-19T02:02:48.820Z,1013.38
2016-06-19T02:03:48.856Z,1013.44
2016-06-19T02:04:48.891Z,1013.41
2016-06-19T02:05:48.926Z,1013.43
2016-06-19T02:06:48.961Z,1013.43
2016-06-19T02:07:48.997Z,1013.44
2016-06-19T02:08:49.032Z,1013.46
2016-06-19T02:09:49.066Z,1013.44
2016-06-19T02:10:49.101Z,1013.44
2016-06-19T02:11:49.136Z,1013.4
2016-06-19T02:12:49.170Z,1013.36
2016-06-19T02:13:49.205Z,1013.42
2016-06-19T02:14:49.240Z,1013.39
2016-06-19T02:15:49.274Z,1013.46
2016-06-19T02:16:49.325Z,1013.46
2016-06-19T02:17:49.360Z,1013.47
2016-06-19T02:18:49.395Z,1013.47
2016-06-19T02:19:49.428Z,1013.47
2016-06-19T02:20:49.448Z,1013.47
2016-06-19T02:21:49.499Z,1013.45
2016-06-19T02:22:49.533Z,1013.49
2016-06-19T02:23:49.567Z,1013.48
2016-06-19T02:24:49.603Z,1013.49
2016-06-19T02:25:49.638Z,1013.53
2016-06-19T02:26:49.672Z,1013.53
2016-06-19T02:27:49.706Z,1013.55
2016-06-19T02:28:49.742Z,1013.58
2016-06-19T02:29:49.776Z,1013.59
2016-06-19T02:30:49.811Z,1013.57
2016-06-19T02:31:49.845Z,1013.58
2016-06-19T02:32:49.881Z,1013.55
2016-06-19T02:33:49.915Z,1013.57
2016-06-19T02:34:49.950Z,1013.58
2016-06-19T02:35:49.984Z,1013.59
2016-06-19T02:36:50.019Z,1013.58
2016-06-19T02:37:50.085Z,1013.6
2016-06-19T02:38:50.088Z,1013.58
2016-06-19T02:39:50.122Z,1013.6
2016-06-19T02:40:50.158Z,1013.61
2016-06-19T02:41:50.193Z,1013.61
2016-06-19T02:42:50.227Z,1013.6
2016-06-19T02:43:50.262Z,1013.64
2016-06-19T02:44:50.297Z,1013.6
2016-06-19T02:45:50.331Z,1013.62
2016-06-19T02:46:50.366Z,1013.64
2016-06-19T02:47:50.401Z,1013.64
2016-06-19T02:48:50.435Z,1013.63
2016-06-19T02:49:50.470Z,1013.65
2016-06-19T02:50:50.505Z,1013.67
2016-06-19T02:51:50.540Z,1013.66
2016-06-19T02:52:50.589Z,1013.68
2016-06-19T02:53:50.624Z,1013.71
2016-06-19T02:54:50.660Z,1013.69
2016-06-19T02:55:50.694Z,1013.65
2016-06-19T02:56:50.728Z,1013.66
2016-06-19T02:57:50.763Z,1013.64
2016-06-19T02:58:50.799Z,1013.7
2016-06-19T02:59:50.833Z,1013.66
2016-06-19T03:00:50.867Z,1013.66
2016-06-19T03:01:50.902Z,1013.67
2016-06-19T03:02:50.937Z,1013.72
2016-06-19T03:03:50.972Z,1013.72
2016-06-19T03:04:51.006Z,1013.8
2016-06-19T03:05:51.041Z,1013.8
2016-06-19T03:06:51.076Z,1013.77
2016-06-19T03:07:51.111Z,1013.8
2016-06-19T03:08:51.145Z,1013.79
2016-06-19T03:09:51.179Z,1013.8
2016-06-19T03:10:51.215Z,1013.83
2016-06-19T03:11:51.249Z,1013.85
2016-06-19T03:12:51.284Z,1013.85
2016-06-19T03:13:51.319Z,1013.87
2016-06-19T03:14:51.369Z,1013.84
2016-06-19T03:15:51.388Z,1013.89
2016-06-19T03:16:51.439Z,1013.86
2016-06-19T03:17:51.474Z,1013.92
2016-06-19T03:18:51.492Z,1013.94
2016-06-19T03:19:51.543Z,1013.89
2016-06-19T03:20:51.578Z,1013.94
2016-06-19T03:21:51.612Z,1013.93
2016-06-19T03:22:51.646Z,1013.92
2016-06-19T03:23:51.682Z,1013.94
2016-06-19T03:24:51.717Z,1013.98
2016-06-19T03:25:51.751Z,1013.93
2016-06-19T03:26:51.785Z,1013.95
2016-06-19T03:27:51.821Z,1013.95
2016-06-19T03:28:51.855Z,1013.94
2016-06-19T03:29:51.890Z,1014.01
2016-06-19T03:30:51.924Z,1014.01
2016-06-19T03:31:51.974Z,1014.08
2016-06-19T03:32:51.994Z,1014.02
2016-06-19T03:33:52.045Z,1014.02
2016-06-19T03:34:52.063Z,1014.05
2016-06-19T03:35:52.113Z,1014.06
2016-06-19T03:36:52.148Z,1014.07
2016-06-19T03:37:52.167Z,1014.09
2016-06-19T03:38:52.202Z,1014.05
2016-06-19T03:39:52.237Z,1014.06
2016-06-19T03:40:52.272Z,1014.1
2016-06-19T03:41:52.322Z,1014.09
2016-06-19T03:42:52.357Z,1014.11
2016-06-19T03:43:52.391Z,1014.15
2016-06-19T03:44:52.425Z,1014.21
2016-06-19T03:45:52.461Z,1014.18
2016-06-19T03:46:52.496Z,1014.19
2016-06-19T03:47:52.529Z,1014.24
2016-06-19T03:48:52.565Z,1014.21
2016-06-19T03:49:52.600Z,1014.27
2016-06-19T03:50:52.634Z,1014.26
2016-06-19T03:51:52.668Z,1014.29
2016-06-19T03:52:52.704Z,1014.33
2016-06-19T03:53:52.739Z,1014.31
2016-06-19T03:54:52.773Z,1014.37
2016-06-19T03:55:52.808Z,1014.36
2016-06-19T03:56:52.842Z,1014.32
2016-06-19T03:57:52.878Z,1014.38
2016-06-19T03:58:52.912Z,1014.34
2016-06-19T03:59:52.947Z,1014.44
2016-06-19T04:00:52.981Z,1014.39
2016-06-19T04:01:53.016Z,1014.44
2016-06-19T04:02:53.051Z,1014.48
2016-06-19T04:03:53.085Z,1014.53
2016-06-19T04:04:53.120Z,1014.53
2016-06-19T04:05:53.170Z,1014.56
2016-06-19T04:06:53.190Z,1014.58
2016-06-19T04:07:53.240Z,1014.57
2016-06-19T04:08:53.259Z,1014.56
2016-06-19T04:09:53.294Z,1014.6
2016-06-19T04:10:53.329Z,1014.56
2016-06-19T04:11:53.381Z,1014.61
2016-06-19T04:12:53.418Z,1014.6
2016-06-19T04:13:53.453Z,1014.57
2016-06-19T04:14:53.490Z,1014.57
2016-06-19T04:15:53.526Z,1014.59
2016-06-19T04:16:53.561Z,1014.61
2016-06-19T04:17:53.597Z,1014.62
2016-06-19T04:18:53.632Z,1014.61
2016-06-19T04:19:53.668Z,1014.67
2016-06-19T04:20:53.703Z,1014.71
2016-06-19T04:21:53.737Z,1014.69
2016-06-19T04:22:53.772Z,1014.73
2016-06-19T04:23:53.807Z,1014.7
2016-06-19T04:24:53.842Z,1014.72
2016-06-19T04:25:53.876Z,1014.76
2016-06-19T04:26:53.911Z,1014.76
2016-06-19T04:27:53.946Z,1014.83
2016-06-19T04:28:53.980Z,1014.81
2016-06-19T04:29:54.015Z,1014.8
2016-06-19T04:30:54.050Z,1014.83
2016-06-19T04:31:54.084Z,1014.87
2016-06-19T04:32:54.135Z,1014.9
2016-06-19T04:33:54.170Z,1014.87
2016-06-19T04:34:54.204Z,1014.86
2016-06-19T04:35:54.238Z,1014.9
2016-06-19T04:36:54.274Z,1014.89
2016-06-19T04:37:54.309Z,1014.91
2016-06-19T04:38:54.342Z,1014.87
2016-06-19T04:39:54.377Z,1014.92
2016-06-19T04:40:54.413Z,1014.92
2016-06-19T04:41:54.447Z,1014.95
2016-06-19T04:42:54.482Z,1014.92
2016-06-19T04:43:54.517Z,1014.96
2016-06-19T04:44:54.551Z,1014.94
2016-06-19T04:45:54.586Z,1014.93
2016-06-19T04:46:54.621Z,1015.01
2016-06-19T04:47:54.671Z,1014.97
2016-06-19T04:48:54.705Z,1014.99
2016-06-19T04:49:54.741Z,1014.98
2016-06-19T04:50:54.775Z,1015.02
2016-06-19T04:51:54.810Z,1015.01
2016-06-19T04:52:54.844Z,1015
2016-06-19T04:53:54.879Z,1015
2016-06-19T04:54:54.914Z,1014.99
2016-06-19T04:55:54.949Z,1015.02
2016-06-19T04:56:54.983Z,1015.02
2016-06-19T04:57:55.033Z,1015.04
2016-06-19T04:58:55.068Z,1015.04
2016-06-19T04:59:55.103Z,1015.04
2016-06-19T05:00:55.138Z,1015.04
2016-06-19T05:01:55.173Z,1015.09
2016-06-19T05:02:55.207Z,1015.13
2016-06-19T05:03:55.242Z,1015.13
2016-06-19T05:04:55.277Z,1015.17
2016-06-19T05:05:55.327Z,1015.17
2016-06-19T05:06:55.362Z,1015.23
2016-06-19T05:07:55.396Z,1015.2
2016-06-19T05:08:55.431Z,1015.25
2016-06-19T05:09:55.466Z,1015.24
2016-06-19T05:10:55.517Z,1015.28
2016-06-19T05:11:55.551Z,1015.26
2016-06-19T05:12:55.585Z,1015.25
2016-06-19T05:13:55.620Z,1015.33
2016-06-19T05:14:55.655Z,1015.32
2016-06-19T05:15:55.706Z,1015.37
2016-06-19T05:16:55.740Z,1015.37
2016-06-19T05:17:55.775Z,1015.34
2016-06-19T05:18:55.809Z,1015.34
2016-06-19T05:19:55.844Z,1015.33
2016-06-19T05:20:55.894Z,1015.37
2016-06-19T05:21:55.930Z,1015.39
2016-06-19T05:22:55.964Z,1015.34
2016-06-19T05:23:55.999Z,1015.38
2016-06-19T05:24:56.049Z,1015.4
2016-06-19T05:25:56.083Z,1015.37
2016-06-19T05:26:56.119Z,1015.42
2016-06-19T05:27:56.153Z,1015.42
2016-06-19T05:28:56.204Z,1015.48
2016-06-19T05:29:56.238Z,1015.41
2016-06-19T05:30:56.272Z,1015.45
2016-06-19T05:31:56.308Z,1015.44
2016-06-19T05:32:56.342Z,1015.46
2016-06-19T05:33:56.377Z,1015.47
2016-06-19T05:34:56.428Z,1015.47
2016-06-19T05:35:56.462Z,1015.5
2016-06-19T05:36:56.497Z,1015.52
2016-06-19T05:37:56.546Z,1015.52
2016-06-19T05:38:56.566Z,1015.51
2016-06-19T05:39:56.617Z,1015.51
2016-06-19T05:40:56.652Z,1015.52
2016-06-19T05:41:56.685Z,1015.58
2016-06-19T05:42:56.721Z,1015.54
2016-06-19T05:43:56.770Z,1015.55
2016-06-19T05:44:56.806Z,1015.53
2016-06-19T05:45:56.840Z,1015.58
2016-06-19T05:46:56.875Z,1015.64
2016-06-19T05:47:56.910Z,1015.61
2016-06-19T05:48:56.944Z,1015.63
2016-06-19T05:49:56.994Z,1015.67
2016-06-19T05:50:57.030Z,1015.69
2016-06-19T05:51:57.065Z,1015.67
2016-06-19T05:52:57.098Z,1015.67
2016-06-19T05:53:57.134Z,1015.7
2016-06-19T05:54:57.168Z,1015.67
2016-06-19T05:55:57.219Z,1015.75
2016-06-19T05:56:57.254Z,1015.67
2016-06-19T05:57:57.288Z,1015.71
2016-06-19T05:58:57.323Z,1015.68
2016-06-19T05:59:57.357Z,1015.66
2016-06-19T06:00:57.392Z,1015.67
2016-06-19T06:01:57.427Z,1015.69
2016-06-19T06:02:57.477Z,1015.71
2016-06-19T06:03:57.511Z,1015.69
2016-06-19T06:04:57.546Z,1015.74
2016-06-19T06:05:57.581Z,1015.74
2016-06-19T06:06:57.616Z,1015.74
2016-06-19T06:07:57.651Z,1015.77
2016-06-19T06:08:57.701Z,1015.75
2016-06-19T06:09:57.735Z,1015.76
2016-06-19T06:10:57.771Z,1015.75
2016-06-19T06:11:57.806Z,1015.79
2016-06-19T06:12:57.840Z,1015.8
2016-06-19T06:13:57.875Z,1015.78
2016-06-19T06:14:57.910Z,1015.81
2016-06-19T06:15:57.959Z,1015.8
2016-06-19T06:16:57.995Z,1015.83
2016-06-19T06:17:58.029Z,1015.83
2016-06-19T06:18:58.063Z,1015.82
2016-06-19T06:19:58.098Z,1015.83
2016-06-19T06:20:58.148Z,1015.83
2016-06-19T06:21:58.184Z,1015.88
2016-06-19T06:22:58.218Z,1015.85
2016-06-19T06:23:58.253Z,1015.89
2016-06-19T06:24:58.288Z,1015.9
2016-06-19T06:25:58.337Z,1015.96
2016-06-19T06:26:58.357Z,1015.94
2016-06-19T06:27:58.414Z,1015.98
2016-06-19T06:28:58.454Z,1015.98
2016-06-19T06:29:58.495Z,1015.99
2016-06-19T06:30:58.535Z,1016.01
2016-06-19T06:31:58.590Z,1016.01
2016-06-19T06:32:58.628Z,1016.08
2016-06-19T06:33:58.665Z,1016.09
2016-06-19T06:34:58.702Z,1016.13
2016-06-19T06:35:58.739Z,1016.09
2016-06-19T06:36:58.776Z,1016.13
2016-06-19T06:37:58.826Z,1016.09
2016-06-19T06:38:58.863Z,1016.12
2016-06-19T06:39:58.898Z,1016.17
2016-06-19T06:40:58.933Z,1016.13
2016-06-19T06:41:58.985Z,1016.14
2016-06-19T06:42:59.018Z,1016.11
2016-06-19T06:43:59.054Z,1016.12
2016-06-19T06:44:59.088Z,1016.15
2016-06-19T06:45:59.140Z,1016.09
2016-06-19T06:46:59.174Z,1016.14
2016-06-19T06:47:59.208Z,1016.12
2016-06-19T06:48:59.243Z,1016.12
2016-06-19T06:49:59.278Z,1016.1
2016-06-19T06:50:59.328Z,1016.14
2016-06-19T06:51:59.363Z,1016.12
2016-06-19T06:52:59.397Z,1016.09
2016-06-19T06:53:59.432Z,1016.09
2016-06-19T06:54:59.482Z,1016.14
2016-06-19T06:55:59.517Z,1016.19
2016-06-19T06:56:59.552Z,1016.17
2016-06-19T06:57:59.603Z,1016.19
2016-06-19T06:58:59.637Z,1016.22
2016-06-19T06:59:59.672Z,1016.18
2016-06-19T07:00:59.706Z,1016.21
2016-06-19T07:01:59.756Z,1016.22
2016-06-19T07:02:59.791Z,1016.2
2016-06-19T07:03:59.826Z,1016.23
2016-06-19T07:04:59.877Z,1016.23
2016-06-19T07:05:59.911Z,1016.22
2016-06-19T07:06:59.946Z,1016.24
2016-06-19T07:07:59.981Z,1016.22
2016-06-19T07:09:00.030Z,1016.25
2016-06-19T07:10:00.065Z,1016.23
2016-06-19T07:11:00.100Z,1016.26
2016-06-19T07:12:00.135Z,1016.28
2016-06-19T07:13:00.186Z,1016.28
2016-06-19T07:14:00.220Z,1016.31
2016-06-19T07:15:00.254Z,1016.34
2016-06-19T07:16:00.289Z,1016.35
2016-06-19T07:17:00.339Z,1016.35
2016-06-19T07:18:00.375Z,1016.37
2016-06-19T07:19:00.409Z,1016.38
2016-06-19T07:20:00.460Z,1016.39
2016-06-19T07:21:00.495Z,1016.42
2016-06-19T07:22:00.528Z,1016.39
2016-06-19T07:23:00.564Z,1016.46
2016-06-19T07:24:00.613Z,1016.46
2016-06-19T07:25:00.649Z,1016.49
2016-06-19T07:26:00.683Z,1016.52
2016-06-19T07:27:00.734Z,1016.51
2016-06-19T07:28:00.753Z,1016.51
2016-06-19T07:29:00.802Z,1016.49
2016-06-19T07:30:00.838Z,1016.48
2016-06-19T07:31:00.873Z,1016.49
2016-06-19T07:32:00.923Z,1016.48
2016-06-19T07:33:00.958Z,1016.52
2016-06-19T07:34:00.992Z,1016.53
2016-06-19T07:35:01.027Z,1016.54
2016-06-19T07:36:01.077Z,1016.52
2016-06-19T07:37:01.112Z,1016.51
2016-06-19T07:38:01.147Z,1016.53
2016-06-19T07:39:01.197Z,1016.51
2016-06-19T07:40:01.232Z,1016.48
2016-06-19T07:41:01.266Z,1016.49
2016-06-19T07:42:01.317Z,1016.5
2016-06-19T07:43:01.351Z,1016.49
2016-06-19T07:44:01.386Z,1016.51
2016-06-19T07:45:01.421Z,1016.55
2016-06-19T07:46:01.472Z,1016.59
2016-06-19T07:47:01.506Z,1016.6
2016-06-19T07:48:01.541Z,1016.6
2016-06-19T07:49:01.591Z,1016.59
2016-06-19T07:50:01.625Z,1016.58
2016-06-19T07:51:01.660Z,1016.57
2016-06-19T07:52:01.710Z,1016.58
2016-06-19T07:53:01.746Z,1016.57
2016-06-19T07:54:01.796Z,1016.62
2016-06-19T07:55:01.831Z,1016.63
2016-06-19T07:56:01.865Z,1016.61
2016-06-19T07:57:01.916Z,1016.6
2016-06-19T07:58:01.950Z,1016.61
2016-06-19T07:59:02.001Z,1016.61
2016-06-19T08:00:02.035Z,1016.6
2016-06-19T08:01:02.070Z,1016.62
2016-06-19T08:02:02.120Z,1016.6
2016-06-19T08:03:02.155Z,1016.65
2016-06-19T08:04:02.190Z,1016.65
2016-06-19T08:05:02.240Z,1016.65
2016-06-19T08:06:02.275Z,1016.66
2016-06-19T08:07:02.310Z,1016.62
2016-06-19T08:08:02.359Z,1016.68
2016-06-19T08:09:02.395Z,1016.7
2016-06-19T08:10:02.429Z,1016.66
2016-06-19T08:11:02.480Z,1016.66
2016-06-19T08:12:02.514Z,1016.74
2016-06-19T08:13:02.549Z,1016.73
2016-06-19T08:14:02.600Z,1016.72
2016-06-19T08:15:02.634Z,1016.76
2016-06-19T08:16:02.669Z,1016.76
2016-06-19T08:17:02.703Z,1016.77
2016-06-19T08:18:02.754Z,1016.72
2016-06-19T08:19:02.789Z,1016.77
2016-06-19T08:20:02.823Z,1016.77
2016-06-19T08:21:02.874Z,1016.79
2016-06-19T08:22:02.908Z,1016.82
2016-06-19T08:23:02.943Z,1016.77
2016-06-19T08:24:02.993Z,1016.82
2016-06-19T08:25:03.028Z,1016.75
2016-06-19T08:26:03.063Z,1016.77
2016-06-19T08:27:03.097Z,1016.79
2016-06-19T08:28:03.132Z,1016.74
2016-06-19T08:29:03.182Z,1016.74
2016-06-19T08:30:03.217Z,1016.75
2016-06-19T08:31:03.252Z,1016.78
2016-06-19T08:32:03.287Z,1016.68
2016-06-19T08:33:03.321Z,1016.71
2016-06-19T08:34:03.372Z,1016.68
2016-06-19T08:35:03.406Z,1016.71
2016-06-19T08:36:03.441Z,1016.7
2016-06-19T08:37:03.491Z,1016.72
2016-06-19T08:38:03.526Z,1016.75
2016-06-19T08:39:03.561Z,1016.79
2016-06-19T08:40:03.596Z,1016.79
2016-06-19T08:41:03.646Z,1016.8
2016-06-19T08:42:03.680Z,1016.81
2016-06-19T08:43:03.715Z,1016.8
2016-06-19T08:44:03.767Z,1016.83
2016-06-19T08:45:03.806Z,1016.83
2016-06-19T08:46:03.843Z,1016.85
2016-06-19T08:47:03.880Z,1016.85
2016-06-19T08:48:03.933Z,1016.8
2016-06-19T08:49:03.969Z,1016.83
2016-06-19T08:50:04.005Z,1016.84
2016-06-19T08:51:04.056Z,1016.87
2016-06-19T08:52:04.092Z,1016.9
2016-06-19T08:53:04.128Z,1016.93
2016-06-19T08:54:04.163Z,1016.94
2016-06-19T08:55:04.214Z,1016.95
2016-06-19T08:56:04.249Z,1016.94
2016-06-19T08:57:04.284Z,1016.94
2016-06-19T08:58:04.320Z,1016.96
2016-06-19T08:59:04.370Z,1016.96
2016-06-19T09:00:04.405Z,1016.97
2016-06-19T09:01:04.439Z,1016.97
2016-06-19T09:02:04.490Z,1016.97
2016-06-19T09:03:04.524Z,1016.95
2016-06-19T09:04:04.559Z,1016.92
2016-06-19T09:05:04.609Z,1016.92
2016-06-19T09:06:04.644Z,1016.96
2016-06-19T09:07:04.679Z,1016.96
2016-06-19T09:08:04.713Z,1016.93
2016-06-19T09:09:04.764Z,1016.97
2016-06-19T09:10:04.798Z,1016.97
2016-06-19T09:11:04.833Z,1016.95
2016-06-19T09:12:04.868Z,1016.99
2016-06-19T09:13:04.918Z,1017.03
2016-06-19T09:14:04.953Z,1017.01
2016-06-19T09:15:04.987Z,1017.07
2016-06-19T09:16:05.022Z,1017.06
2016-06-19T09:17:05.073Z,1017.1
2016-06-19T09:18:05.108Z,1017.11
2016-06-19T09:19:05.158Z,1017.09
2016-06-19T09:20:05.193Z,1017.13
2016-06-19T09:21:05.228Z,1017.15
2016-06-19T09:22:05.261Z,1017.19
2016-06-19T09:23:05.296Z,1017.22
2016-06-19T09:24:05.331Z,1017.21
2016-06-19T09:25:05.382Z,1017.22
2016-06-19T09:26:05.417Z,1017.23
2016-06-19T09:27:05.451Z,1017.27
2016-06-19T09:28:05.486Z,1017.25
2016-06-19T09:29:05.520Z,1017.28
2016-06-19T09:30:05.570Z,1017.29
2016-06-19T09:31:05.606Z,1017.25
2016-06-19T09:32:05.641Z,1017.3
2016-06-19T09:33:05.675Z,1017.28
2016-06-19T09:34:05.710Z,1017.29
2016-06-19T09:35:05.759Z,1017.31
2016-06-19T09:36:05.795Z,1017.27
2016-06-19T09:37:05.829Z,1017.27
2016-06-19T09:38:05.864Z,1017.27
2016-06-19T09:39:05.915Z,1017.25
2016-06-19T09:40:05.948Z,1017.33
2016-06-19T09:41:05.983Z,1017.3
2016-06-19T09:42:06.019Z,1017.3
2016-06-19T09:43:06.053Z,1017.3
2016-06-19T09:44:06.104Z,1017.29
2016-06-19T09:45:06.138Z,1017.34
2016-06-19T09:46:06.189Z,1017.33
2016-06-19T09:47:06.223Z,1017.36
2016-06-19T09:48:06.257Z,1017.35
2016-06-19T09:49:06.293Z,1017.37
2016-06-19T09:50:06.327Z,1017.38
2016-06-19T09:51:06.362Z,1017.37
2016-06-19T09:52:06.413Z,1017.41
2016-06-19T09:53:06.447Z,1017.4
2016-06-19T09:54:06.482Z,1017.41
2016-06-19T09:55:06.517Z,1017.41
2016-06-19T09:56:06.567Z,1017.37
2016-06-19T09:57:06.602Z,1017.42
2016-06-19T09:58:06.636Z,1017.37
2016-06-19T09:59:06.671Z,1017.39
2016-06-19T10:00:06.721Z,1017.4
2016-06-19T10:01:06.756Z,1017.37
2016-06-19T10:02:06.791Z,1017.39
2016-06-19T10:03:06.826Z,1017.38
2016-06-19T10:04:06.876Z,1017.33
2016-06-19T10:05:06.910Z,1017.33
2016-06-19T10:06:06.945Z,1017.35
2016-06-19T10:07:06.980Z,1017.32
2016-06-19T10:08:07.031Z,1017.37
2016-06-19T10:09:07.065Z,1017.35
2016-06-19T10:10:07.100Z,1017.39
2016-06-19T10:11:07.150Z,1017.31
2016-06-19T10:12:07.184Z,1017.31
2016-06-19T10:13:07.219Z,1017.34
2016-06-19T10:14:07.269Z,1017.33
2016-06-19T10:15:07.305Z,1017.28
2016-06-19T10:16:07.339Z,1017.29
2016-06-19T10:17:07.390Z,1017.34
2016-06-19T10:18:07.424Z,1017.32
2016-06-19T10:19:07.475Z,1017.35
2016-06-19T10:20:07.509Z,1017.32
2016-06-19T10:21:07.544Z,1017.34
2016-06-19T10:22:07.594Z,1017.27
2016-06-19T10:23:07.629Z,1017.3
2016-06-19T10:24:07.679Z,1017.31
2016-06-19T10:25:07.714Z,1017.3
2016-06-19T10:26:07.764Z,1017.27
2016-06-19T10:27:07.799Z,1017.3
2016-06-19T10:28:07.850Z,1017.31
2016-06-19T10:29:07.884Z,1017.27
2016-06-19T10:30:07.919Z,1017.31
2016-06-19T10:31:07.970Z,1017.28
2016-06-19T10:32:08.004Z,1017.31
2016-06-19T10:33:08.055Z,1017.32
2016-06-19T10:34:08.089Z,1017.35
2016-06-19T10:35:08.139Z,1017.37
2016-06-19T10:36:08.174Z,1017.34
2016-06-19T10:37:08.224Z,1017.34
2016-06-19T10:38:08.259Z,1017.36
2016-06-19T10:39:08.294Z,1017.39
2016-06-19T10:40:08.344Z,1017.38
2016-06-19T10:41:08.379Z,1017.42
2016-06-19T10:42:08.414Z,1017.45
2016-06-19T10:43:08.464Z,1017.53
2016-06-19T10:44:08.499Z,1017.48
2016-06-19T10:45:08.548Z,1017.47
2016-06-19T10:46:08.583Z,1017.5
2016-06-19T10:47:08.618Z,1017.51
2016-06-19T10:48:08.669Z,1017.51
2016-06-19T10:49:08.704Z,1017.54
2016-06-19T10:50:08.738Z,1017.55
2016-06-19T10:51:08.789Z,1017.54
2016-06-19T10:52:08.822Z,1017.55
2016-06-19T10:53:08.874Z,1017.57
2016-06-19T10:54:08.893Z,1017.56
2016-06-19T10:55:08.943Z,1017.58
2016-06-19T10:56:08.977Z,1017.55
2016-06-19T10:57:09.012Z,1017.58
2016-06-19T10:58:09.047Z,1017.62
2016-06-19T10:59:09.082Z,1017.62
2016-06-19T11:00:09.132Z,1017.58
2016-06-19T11:01:09.169Z,1017.62
2016-06-19T11:02:09.205Z,1017.62
2016-06-19T11:03:09.257Z,1017.61
2016-06-19T11:04:09.293Z,1017.6
2016-06-19T11:05:09.328Z,1017.56
2016-06-19T11:06:09.364Z,1017.53
2016-06-19T11:07:09.414Z,1017.57
2016-06-19T11:08:09.450Z,1017.64
2016-06-19T11:09:09.485Z,1017.64
2016-06-19T11:10:09.536Z,1017.58
2016-06-19T11:11:09.571Z,1017.54
2016-06-19T11:12:09.606Z,1017.58
2016-06-19T11:13:09.656Z,1017.52
2016-06-19T11:14:09.692Z,1017.54
2016-06-19T11:15:09.727Z,1017.56
2016-06-19T11:16:09.777Z,1017.54
2016-06-19T11:17:09.812Z,1017.52
2016-06-19T11:18:09.862Z,1017.61
2016-06-19T11:19:09.897Z,1017.56
2016-06-19T11:20:09.931Z,1017.62
2016-06-19T11:21:09.982Z,1017.57
2016-06-19T11:22:10.016Z,1017.56
2016-06-19T11:23:10.067Z,1017.61
2016-06-19T11:24:10.117Z,1017.59
2016-06-19T11:25:10.151Z,1017.6
2016-06-19T11:26:10.187Z,1017.64
2016-06-19T11:27:10.237Z,1017.55
2016-06-19T11:28:10.287Z,1017.64
2016-06-19T11:29:10.322Z,1017.55
2016-06-19T11:30:10.372Z,1017.55
2016-06-19T11:31:10.422Z,1017.61
2016-06-19T11:32:10.458Z,1017.65
2016-06-19T11:33:10.507Z,1017.67
2016-06-19T11:34:10.557Z,1017.62
2016-06-19T11:35:10.593Z,1017.67
2016-06-19T11:36:10.642Z,1017.61
2016-06-19T11:37:10.678Z,1017.56
2016-06-19T11:38:10.728Z,1017.68
2016-06-19T11:39:10.778Z,1017.63
2016-06-19T11:40:10.828Z,1017.61
2016-06-19T11:41:10.878Z,1017.68
2016-06-19T11:42:10.914Z,1017.68
2016-06-19T11:43:10.964Z,1017.71
2016-06-19T11:44:11.014Z,1017.71
2016-06-19T11:45:11.065Z,1017.66
2016-06-19T11:46:11.115Z,1017.65
2016-06-19T11:47:11.166Z,1017.61
2016-06-19T11:48:11.216Z,1017.65
2016-06-19T11:49:11.266Z,1017.62
2016-06-19T11:50:11.316Z,1017.67
2016-06-19T11:51:11.351Z,1017.66
2016-06-19T11:52:11.401Z,1017.68
2016-06-19T11:53:11.452Z,1017.68
2016-06-19T11:54:11.502Z,1017.59
2016-06-19T11:55:11.553Z,1017.61
2016-06-19T11:56:11.603Z,1017.57
2016-06-19T11:57:11.654Z,1017.59
2016-06-19T11:58:11.703Z,1017.55
2016-06-19T11:59:11.754Z,1017.58
2016-06-19T12:00:11.805Z,1017.52
2016-06-19T12:01:11.854Z,1017.48
2016-06-19T12:02:11.904Z,1017.51
2016-06-19T12:03:11.955Z,1017.51
2016-06-19T12:04:11.990Z,1017.52
2016-06-19T12:05:12.056Z,1017.5
2016-06-19T12:06:12.090Z,1017.49
2016-06-19T12:07:12.141Z,1017.58
2016-06-19T12:08:12.192Z,1017.57